createdAt,value
2023-04-25T00:01:53.601Z,4.75
2023-04-25T00:04:22.908Z,2.13
2023-04-25T00:06:51.523Z,4.10
2023-04-25T00:09:21.437Z,4.05
2023-04-25T00:11:49.858Z,3.78
2023-04-25T00:14:18.139Z,1.95
2023-04-25T00:16:46.428Z,2.15
2023-04-25T00:19:14.673Z,3.80
2023-04-25T00:21:42.991Z,3.17
2023-04-25T00:24:11.352Z,3.00
2023-04-25T00:26:40.944Z,2.97
2023-04-25T00:29:09.242Z,2.78
2023-04-25T00:31:37.593Z,2.28
2023-04-25T00:34:06.012Z,3.05
2023-04-25T00:36:34.607Z,2.70
2023-04-25T00:39:05.593Z,3.65
2023-04-25T00:44:06.121Z,3.53
2023-04-25T00:46:35.040Z,2.30
2023-04-25T00:49:03.394Z,5.00
2023-04-25T00:51:34.574Z,2.97
2023-04-25T00:54:03.534Z,2.80
2023-04-25T00:56:32.092Z,2.10
2023-04-25T00:59:01.481Z,2.20
2023-04-25T01:01:32.231Z,1.83
2023-04-25T01:04:02.609Z,2.37
2023-04-25T01:06:31.205Z,2.58
2023-04-25T01:09:01.079Z,4.97
2023-04-25T01:11:29.702Z,2.47
2023-04-25T01:13:58.154Z,2.97
2023-04-25T01:16:27.188Z,3.60
2023-04-25T01:18:57.352Z,2.83
2023-04-25T01:21:29.244Z,2.58
2023-04-25T01:23:59.026Z,3.22
2023-04-25T01:26:28.467Z,2.67
2023-04-25T01:28:57.009Z,2.78
2023-04-25T01:31:26.057Z,3.03
2023-04-25T01:33:54.429Z,4.15
2023-04-25T01:36:24.089Z,2.22
2023-04-25T01:38:53.815Z,3.58
2023-04-25T01:41:24.459Z,2.75
2023-04-25T01:43:53.068Z,2.67
2023-04-25T01:46:21.528Z,2.53
2023-04-25T01:48:50.910Z,2.80
2023-04-25T01:51:19.711Z,2.55
2023-04-25T01:53:48.778Z,2.67
2023-04-25T01:56:20.171Z,2.65
2023-04-25T01:58:48.559Z,3.55
2023-04-25T02:01:22.872Z,5.05
2023-04-25T02:04:08.166Z,4.13
2023-04-25T02:06:38.736Z,2.80
2023-04-25T02:09:08.656Z,4.53
2023-04-25T02:11:42.941Z,2.78
2023-04-25T02:14:27.867Z,4.75
2023-04-25T02:17:05.607Z,3.10
2023-04-25T02:19:34.121Z,3.97
2023-04-25T02:22:03.102Z,2.95
2023-04-25T02:24:32.872Z,3.97
2023-04-25T02:27:02.560Z,4.57
2023-04-25T02:29:31.148Z,2.75
2023-04-25T02:31:59.383Z,2.92
2023-04-25T02:34:28.483Z,3.42
2023-04-25T02:36:56.717Z,5.05
2023-04-25T02:39:26.242Z,3.90
2023-04-25T02:41:54.936Z,4.97
2023-04-25T02:44:25.186Z,3.58
2023-04-25T02:46:53.571Z,3.47
2023-04-25T02:49:22.150Z,2.40
2023-04-25T02:51:50.571Z,5.90
2023-04-25T02:54:18.932Z,9.00
2023-04-25T02:56:49.673Z,2.97
2023-04-25T02:59:25.884Z,3.28
2023-04-25T03:01:54.460Z,2.80
2023-04-25T03:04:24.837Z,5.25
2023-04-25T03:06:54.114Z,5.68
2023-04-25T03:09:23.729Z,3.67
2023-04-25T03:11:54.145Z,3.53
2023-04-25T03:14:22.726Z,2.72
2023-04-25T03:16:53.651Z,4.32
2023-04-25T03:19:22.250Z,2.15
2023-04-25T03:21:51.044Z,2.83
2023-04-25T03:24:19.652Z,3.05
2023-04-25T03:26:47.939Z,2.03
2023-04-25T03:29:16.336Z,4.45
2023-04-25T03:31:46.555Z,2.88
2023-04-25T03:34:16.405Z,3.63
2023-04-25T03:36:44.788Z,3.13
2023-04-25T03:39:13.265Z,4.47
2023-04-25T03:41:45.565Z,3.72
2023-04-25T03:44:16.302Z,5.40
2023-04-25T03:46:44.728Z,2.63
2023-04-25T03:49:13.026Z,5.68
2023-04-25T03:51:59.528Z,2.67
2023-04-25T03:54:27.938Z,3.42
2023-04-25T03:57:01.251Z,3.55
2023-04-25T03:59:31.492Z,1.70
2023-04-25T04:01:59.925Z,2.70
2023-04-25T04:04:28.929Z,1.60
2023-04-25T04:06:59.176Z,1.65
2023-04-25T04:09:30.813Z,4.05
2023-04-25T04:12:02.460Z,3.10
2023-04-25T04:17:00.682Z,2.25
2023-04-25T04:19:31.000Z,2.33
2023-04-25T04:22:12.565Z,2.85
2023-04-25T04:24:45.032Z,1.63
2023-04-25T04:27:15.135Z,2.97
2023-04-25T04:30:04.354Z,2.60
2023-04-25T04:32:39.383Z,2.65
2023-04-25T04:35:10.070Z,2.00
2023-04-25T04:37:40.670Z,3.40
2023-04-25T04:40:11.903Z,2.67
2023-04-25T04:43:03.318Z,1.75
2023-04-25T04:45:48.772Z,2.95
2023-04-25T04:48:35.204Z,2.10
2023-04-25T04:51:42.328Z,2.45
2023-04-25T04:54:38.212Z,2.80
2023-04-25T04:57:37.089Z,2.88
2023-04-25T05:00:27.113Z,2.80
2023-04-25T05:03:15.757Z,2.38
2023-04-25T05:06:09.941Z,6.32
2023-04-25T05:08:57.561Z,4.07
2023-04-25T05:11:41.227Z,4.45
2023-04-25T05:14:47.996Z,3.05
2023-04-25T05:17:34.777Z,4.38
2023-04-25T05:20:27.933Z,5.55
2023-04-25T05:25:51.552Z,2.47
2023-04-25T05:28:34.510Z,2.38
2023-04-25T05:31:16.607Z,3.65
2023-04-25T05:33:51.864Z,3.78
2023-04-25T05:36:21.573Z,3.00
2023-04-25T05:38:50.119Z,1.83
2023-04-25T05:41:24.097Z,4.07
2023-04-25T05:44:26.013Z,5.13
2023-04-25T05:47:13.177Z,2.80
2023-04-25T05:50:06.732Z,3.70
2023-04-25T05:52:45.381Z,5.00
2023-04-25T05:55:29.085Z,5.28
2023-04-25T05:57:59.201Z,4.10
2023-04-25T06:00:29.540Z,4.05
2023-04-25T06:02:58.126Z,3.88
2023-04-25T06:05:27.007Z,4.05
2023-04-25T06:07:55.428Z,2.50
2023-04-25T06:10:24.747Z,5.20
2023-04-25T06:12:53.266Z,5.22
2023-04-25T06:15:28.622Z,3.67
2023-04-25T06:17:59.424Z,4.85
2023-04-25T06:20:27.858Z,4.72
2023-04-25T06:22:59.345Z,3.40
2023-04-25T06:25:50.130Z,5.27
2023-04-25T06:28:18.724Z,3.83
2023-04-25T06:30:47.054Z,23.27
2023-04-25T06:33:21.243Z,8.80
2023-04-25T06:35:50.888Z,11.85
2023-04-25T06:38:23.689Z,5.13
2023-04-25T06:40:53.913Z,10.90
2023-04-25T06:43:22.209Z,7.32
2023-04-25T06:46:05.346Z,6.20
2023-04-25T06:48:38.858Z,5.55
2023-04-25T06:51:07.597Z,7.22
2023-04-25T06:53:37.303Z,4.95
2023-04-25T06:56:08.839Z,4.25
2023-04-25T06:58:48.811Z,6.43
2023-04-25T07:01:25.982Z,3.72
2023-04-25T07:03:56.426Z,4.38
2023-04-25T07:06:26.938Z,5.17
2023-04-25T07:08:57.262Z,5.82
2023-04-25T07:11:26.439Z,4.68
2023-04-25T07:13:54.688Z,4.65
2023-04-25T07:16:22.992Z,4.20
2023-04-25T07:18:51.857Z,5.30
2023-04-25T07:21:22.514Z,3.63
2023-04-25T07:23:52.976Z,3.38
2023-04-25T07:26:27.765Z,3.40
2023-04-25T07:29:28.822Z,3.30
2023-04-25T07:31:57.324Z,4.95
2023-04-25T07:34:25.755Z,4.45
2023-04-25T07:36:55.583Z,5.55
2023-04-25T07:41:55.324Z,5.15
2023-04-25T07:44:27.712Z,4.45
2023-04-25T07:46:56.476Z,4.80
2023-04-25T07:49:25.885Z,3.58
2023-04-25T07:51:55.528Z,4.72
2023-04-25T07:54:24.962Z,4.20
2023-04-25T07:56:59.894Z,5.45
2023-04-25T07:59:31.747Z,3.70
2023-04-25T08:02:03.481Z,4.03
2023-04-25T08:04:32.463Z,3.92
2023-04-25T08:07:06.751Z,4.47
2023-04-25T08:09:43.319Z,4.55
2023-04-25T08:12:18.730Z,3.88
2023-04-25T08:14:47.271Z,5.47
2023-04-25T08:17:16.161Z,5.22
2023-04-25T08:19:44.831Z,5.45
2023-04-25T08:22:23.233Z,6.85
2023-04-25T08:25:12.087Z,8.75
2023-04-25T08:27:41.605Z,6.50
2023-04-25T08:30:11.646Z,6.15
2023-04-25T08:32:41.850Z,6.03
2023-04-25T08:35:23.981Z,3.92
2023-04-25T08:37:55.141Z,4.95
2023-04-25T08:40:29.780Z,4.90
2023-04-25T08:43:05.630Z,4.72
2023-04-25T08:45:35.459Z,4.05
2023-04-25T08:48:05.573Z,5.22
2023-04-25T08:50:34.098Z,5.20
2023-04-25T08:53:11.180Z,4.70
2023-04-25T08:55:41.345Z,4.60
2023-04-25T08:58:13.011Z,5.38
2023-04-25T09:00:41.686Z,6.68
2023-04-25T09:03:10.341Z,3.25
2023-04-25T09:05:39.158Z,5.60
2023-04-25T09:08:08.837Z,2.22
2023-04-25T09:10:38.243Z,2.70
2023-04-25T09:13:11.460Z,3.38
2023-04-25T09:16:00.260Z,3.63
2023-04-25T09:18:50.525Z,3.63
2023-04-25T09:21:24.219Z,4.55
2023-04-25T09:23:54.907Z,4.00
2023-04-25T09:26:23.599Z,2.75
2023-04-25T09:29:08.361Z,4.00
2023-04-25T09:31:39.941Z,6.60
2023-04-25T09:34:13.038Z,6.75
2023-04-25T09:36:47.500Z,3.83
2023-04-25T09:39:22.494Z,2.50
2023-04-25T09:42:01.882Z,4.13
2023-04-25T09:44:31.260Z,5.15
2023-04-25T09:47:00.243Z,3.15
2023-04-25T09:49:31.248Z,4.57
2023-04-25T09:52:06.518Z,2.65
2023-04-25T09:55:00.935Z,2.35
2023-04-25T09:57:36.256Z,3.97
2023-04-25T10:00:10.516Z,2.33
2023-04-25T10:02:49.716Z,3.95
2023-04-25T10:05:54.516Z,3.30
2023-04-25T10:08:24.279Z,3.22
2023-04-25T10:10:53.990Z,4.40
2023-04-25T10:13:22.537Z,3.17
2023-04-25T10:15:51.561Z,3.20
2023-04-25T10:18:20.993Z,3.67
2023-04-25T10:20:49.285Z,5.50
2023-04-25T10:23:18.551Z,5.13
2023-04-25T10:25:47.578Z,3.75
2023-04-25T10:28:17.324Z,3.38
2023-04-25T10:31:00.389Z,3.75
2023-04-25T10:33:35.331Z,3.13
2023-04-25T10:36:12.264Z,3.25
2023-04-25T10:38:41.264Z,4.85
2023-04-25T10:41:11.819Z,5.45
2023-04-25T10:43:42.927Z,7.22
2023-04-25T10:46:23.867Z,4.22
2023-04-25T10:48:53.342Z,2.20
2023-04-25T10:51:24.142Z,2.75
2023-04-25T10:54:01.373Z,1.60
2023-04-25T10:56:31.218Z,3.45
2023-04-25T10:59:09.263Z,2.65
2023-04-25T11:01:42.614Z,1.33
2023-04-25T11:04:23.039Z,2.55
2023-04-25T11:07:15.836Z,2.97
2023-04-25T11:09:44.214Z,3.25
2023-04-25T11:12:14.166Z,3.38
2023-04-25T11:14:44.919Z,4.63
2023-04-25T11:17:14.198Z,2.90
2023-04-25T11:19:42.693Z,3.40
2023-04-25T11:22:12.710Z,3.00
2023-04-25T11:24:41.177Z,1.95
2023-04-25T11:27:10.438Z,1.55
2023-04-25T11:29:38.750Z,3.85
2023-04-25T11:32:08.609Z,1.63
2023-04-25T11:34:37.275Z,3.20
2023-04-25T11:37:09.299Z,4.35
2023-04-25T11:39:37.732Z,5.13
2023-04-25T11:42:08.694Z,1.67
2023-04-25T11:44:55.233Z,1.92
2023-04-25T11:47:30.877Z,2.70
2023-04-25T11:50:01.118Z,1.73
2023-04-25T11:52:38.941Z,2.88
2023-04-25T11:55:11.181Z,3.33
2023-04-25T11:57:41.687Z,3.42
2023-04-25T12:00:15.010Z,2.10
2023-04-25T12:02:49.090Z,1.77
2023-04-25T12:07:49.497Z,2.00
2023-04-25T12:10:20.418Z,2.05
2023-04-25T12:12:50.608Z,1.35
2023-04-25T12:15:21.154Z,1.67
2023-04-25T12:17:52.492Z,1.20
2023-04-25T12:20:24.655Z,1.90
2023-04-25T12:22:54.002Z,1.10
2023-04-25T12:25:39.438Z,1.05
2023-04-25T12:28:20.667Z,1.42
2023-04-25T12:30:59.995Z,1.75
2023-04-25T12:33:31.442Z,1.83
2023-04-25T12:36:01.214Z,1.85
2023-04-25T12:38:31.385Z,0.82
2023-04-25T12:41:00.262Z,1.98
2023-04-25T12:43:28.929Z,1.25
2023-04-25T12:45:58.250Z,1.08
2023-04-25T12:48:26.860Z,0.73
2023-04-25T12:50:56.551Z,2.08
2023-04-25T12:53:26.105Z,1.42
2023-04-25T12:58:24.697Z,1.17
2023-04-25T13:00:52.983Z,3.13
2023-04-25T13:03:21.529Z,1.20
2023-04-25T13:05:51.284Z,2.05
2023-04-25T13:08:21.022Z,1.00
2023-04-25T13:10:50.361Z,1.15
2023-04-25T13:13:18.669Z,1.15
2023-04-25T13:15:47.278Z,0.85
2023-04-25T13:18:15.716Z,0.85
2023-04-25T13:20:44.114Z,2.20
2023-04-25T13:23:12.399Z,2.20
2023-04-25T13:25:42.171Z,0.95
2023-04-25T13:28:10.546Z,1.15
2023-04-25T13:30:39.082Z,2.03
2023-04-25T13:33:07.621Z,1.02
2023-04-25T13:35:37.575Z,1.48
2023-04-25T13:38:06.143Z,2.60
2023-04-25T13:40:34.898Z,1.30
2023-04-25T13:43:04.694Z,1.30
2023-04-25T13:45:33.717Z,1.58
2023-04-25T13:48:02.776Z,1.27
2023-04-25T13:50:31.254Z,1.33
2023-04-25T13:52:59.574Z,1.60
2023-04-25T13:55:28.548Z,1.45
2023-04-25T13:57:57.087Z,2.08
2023-04-25T14:00:26.934Z,2.03
2023-04-25T14:02:58.800Z,2.47
2023-04-25T14:07:56.374Z,1.33
2023-04-25T14:10:24.782Z,2.03
2023-04-25T14:12:52.986Z,1.52
2023-04-25T14:15:21.316Z,0.82
2023-04-25T14:17:51.363Z,1.10
2023-04-25T14:20:21.296Z,0.70
2023-04-25T14:22:49.792Z,1.75
2023-04-25T14:25:18.196Z,1.05
2023-04-25T14:27:50.618Z,1.25
2023-04-25T14:30:19.548Z,1.60
2023-04-25T14:32:47.890Z,0.88
2023-04-25T14:35:17.666Z,0.68
2023-04-25T14:37:46.123Z,1.17
2023-04-25T14:40:16.377Z,0.95
2023-04-25T14:42:44.925Z,1.75
2023-04-25T14:45:13.660Z,0.73
2023-04-25T14:47:42.527Z,1.80
2023-04-25T14:50:11.892Z,1.90
2023-04-25T14:52:41.518Z,1.05
2023-04-25T14:55:10.667Z,1.05
2023-04-25T14:57:40.256Z,0.88
2023-04-25T15:00:10.633Z,1.17
2023-04-25T15:02:39.212Z,0.60
2023-04-25T15:05:09.516Z,1.65
2023-04-25T15:07:37.876Z,0.65
2023-04-25T15:10:14.298Z,1.95
2023-04-25T15:12:42.606Z,0.70
2023-04-25T15:15:14.205Z,0.82
2023-04-25T15:17:46.565Z,0.80
2023-04-25T15:20:15.946Z,1.38
2023-04-25T15:22:46.014Z,2.20
2023-04-25T15:25:15.588Z,1.55
2023-04-25T15:27:45.067Z,0.70
2023-04-25T15:30:16.267Z,0.50
2023-04-25T15:32:44.976Z,0.80
2023-04-25T15:35:13.677Z,1.13
2023-04-25T15:37:42.531Z,2.00
2023-04-25T15:40:13.793Z,0.75
2023-04-25T15:42:47.945Z,1.00
2023-04-25T15:45:18.122Z,1.00
2023-04-25T15:47:46.805Z,2.30
2023-04-25T15:50:15.975Z,1.75
2023-04-25T15:52:44.630Z,1.83
2023-04-25T15:55:13.005Z,1.45
2023-04-25T15:57:42.296Z,1.90
2023-04-25T16:00:13.395Z,1.30
2023-04-25T16:02:42.792Z,1.52
2023-04-25T16:05:13.099Z,2.03
2023-04-25T16:07:42.607Z,1.20
2023-04-25T16:10:12.209Z,1.38
2023-04-25T16:12:41.068Z,3.35
2023-04-25T16:15:11.601Z,1.35
2023-04-25T16:17:40.310Z,3.10
2023-04-25T16:20:12.526Z,1.60
2023-04-25T16:22:43.523Z,2.40
2023-04-25T16:25:12.984Z,2.95
2023-04-25T16:27:42.152Z,2.97
2023-04-25T16:30:12.961Z,2.30
2023-04-25T16:32:44.742Z,2.33
2023-04-25T16:35:13.912Z,1.90
2023-04-25T16:37:42.122Z,1.85
2023-04-25T16:40:10.979Z,2.40
2023-04-25T16:42:39.385Z,2.00
2023-04-25T16:45:08.450Z,2.25
2023-04-25T16:47:38.162Z,2.17
2023-04-25T16:50:07.920Z,3.78
2023-04-25T16:52:36.163Z,2.63
2023-04-25T16:55:04.570Z,4.05
2023-04-25T16:57:33.013Z,3.58
2023-04-25T17:00:01.672Z,3.95
2023-04-25T17:02:30.222Z,2.63
2023-04-25T17:05:00.020Z,2.85
2023-04-25T17:07:30.039Z,3.20
2023-04-25T17:09:58.355Z,2.92
2023-04-25T17:12:26.614Z,2.67
2023-04-25T17:14:54.920Z,2.92
2023-04-25T17:17:23.214Z,3.25
2023-04-25T17:19:52.166Z,2.45
2023-04-25T17:22:22.757Z,3.88
2023-04-25T17:24:51.195Z,3.40
2023-04-25T17:27:19.465Z,2.95
2023-04-25T17:29:47.899Z,3.20
2023-04-25T17:32:17.486Z,3.05
2023-04-25T17:34:46.237Z,5.28
2023-04-25T17:37:16.367Z,3.08
2023-04-25T17:39:46.239Z,4.43
2023-04-25T17:42:15.046Z,2.95
2023-04-25T17:44:43.897Z,4.20
2023-04-25T17:47:12.564Z,3.67
2023-04-25T17:49:41.174Z,3.45
2023-04-25T17:52:09.563Z,3.13
2023-04-25T17:54:37.957Z,3.63
2023-04-25T17:57:07.606Z,4.22
2023-04-25T17:59:36.431Z,3.10
2023-04-25T18:02:04.777Z,7.30
2023-04-25T18:04:33.310Z,40.70
2023-04-25T18:07:01.565Z,126.97
2023-04-25T18:09:32.211Z,136.57
2023-04-25T18:12:00.575Z,107.38
2023-04-25T18:14:33.845Z,103.68
2023-04-25T18:17:02.160Z,66.88
2023-04-25T18:19:30.774Z,51.95
2023-04-25T18:21:59.038Z,28.58
2023-04-25T18:24:27.574Z,15.50
2023-04-25T18:27:00.370Z,9.55
2023-04-25T18:29:33.592Z,34.67
2023-04-25T18:32:05.238Z,228.55
2023-04-25T18:34:34.290Z,144.13
2023-04-25T18:37:02.478Z,145.95
2023-04-25T18:39:30.901Z,101.22
2023-04-25T18:42:04.758Z,76.28
2023-04-25T18:44:39.915Z,47.83
2023-04-25T18:47:08.932Z,27.63
2023-04-25T18:49:38.770Z,19.55
2023-04-25T18:52:10.342Z,94.53
2023-04-25T18:57:07.199Z,201.10
2023-04-25T18:59:36.949Z,120.35
2023-04-25T19:02:05.844Z,92.13
2023-04-25T19:04:34.548Z,53.63
2023-04-25T19:07:04.225Z,29.38
2023-04-25T19:09:32.782Z,17.77
2023-04-25T19:12:02.545Z,11.80
2023-04-25T19:14:32.938Z,8.07
2023-04-25T19:17:02.838Z,6.43
2023-04-25T19:19:32.563Z,5.03
2023-04-25T19:22:01.508Z,4.95
2023-04-25T19:24:30.182Z,6.00
2023-04-25T19:26:58.744Z,4.50
2023-04-25T19:29:28.896Z,4.30
2023-04-25T19:31:59.522Z,5.45
2023-04-25T19:34:29.280Z,4.53
2023-04-25T19:36:57.633Z,4.70
2023-04-25T19:39:26.133Z,7.22
2023-04-25T19:41:56.725Z,5.68
2023-04-25T19:44:25.480Z,4.78
2023-04-25T19:46:53.991Z,5.07
2023-04-25T19:49:22.631Z,4.32
2023-04-25T19:51:52.387Z,6.57
2023-04-25T19:54:22.821Z,4.70
2023-04-25T19:56:51.825Z,4.18
2023-04-25T19:59:20.411Z,3.67
2023-04-25T20:01:48.871Z,5.20
2023-04-25T20:04:18.305Z,4.63
2023-04-25T20:06:46.687Z,3.58
2023-04-25T20:09:16.453Z,3.83
2023-04-25T20:11:44.953Z,6.30
2023-04-25T20:14:13.193Z,3.90
2023-04-25T20:16:41.945Z,2.95
2023-04-25T20:19:10.434Z,4.65
2023-04-25T20:21:38.747Z,3.70
2023-04-25T20:24:07.579Z,4.82
2023-04-25T20:26:37.155Z,4.05
2023-04-25T20:29:06.459Z,4.10
2023-04-25T20:31:36.959Z,3.53
2023-04-25T20:34:05.983Z,3.40
2023-04-25T20:36:34.534Z,5.18
2023-04-25T20:39:03.489Z,4.57
2023-04-25T20:41:32.203Z,4.07
2023-04-25T20:44:03.002Z,5.22
2023-04-25T20:46:31.746Z,4.73
2023-04-25T20:49:01.525Z,4.15
2023-04-25T20:51:30.903Z,4.32
2023-04-25T20:53:59.237Z,5.40
2023-04-25T20:56:27.640Z,4.10
2023-04-25T20:58:56.911Z,5.45
2023-04-25T21:01:27.868Z,4.93
2023-04-25T21:03:56.294Z,7.07
2023-04-25T21:06:25.313Z,5.18
2023-04-25T21:08:53.825Z,3.70
2023-04-25T21:11:23.583Z,5.35
2023-04-25T21:13:52.214Z,4.50
2023-04-25T21:16:21.307Z,3.55
2023-04-25T21:18:51.239Z,3.38
2023-04-25T21:21:19.737Z,4.50
2023-04-25T21:23:48.098Z,4.07
2023-04-25T21:26:16.873Z,3.88
2023-04-25T21:28:46.833Z,6.20
2023-04-25T21:31:15.496Z,3.38
2023-04-25T21:33:43.843Z,3.25
2023-04-25T21:36:13.481Z,3.65
2023-04-25T21:38:41.715Z,4.43
2023-04-25T21:41:09.938Z,4.35
2023-04-25T21:43:38.171Z,3.67
2023-04-25T21:46:22.266Z,5.03
2023-04-25T21:48:54.174Z,4.20
2023-04-25T21:51:24.239Z,3.40
2023-04-25T21:53:52.915Z,3.78
2023-04-25T21:56:21.223Z,4.15
2023-04-25T21:58:49.966Z,3.40
2023-04-25T22:01:18.706Z,4.70
2023-04-25T22:03:47.105Z,5.18
2023-04-25T22:06:15.570Z,3.15
2023-04-25T22:08:45.365Z,4.93
2023-04-25T22:11:13.803Z,4.32
2023-04-25T22:13:42.100Z,3.55
2023-04-25T22:16:12.255Z,4.55
2023-04-25T22:18:42.181Z,4.13
2023-04-25T22:21:10.702Z,4.10
2023-04-25T22:23:39.078Z,4.50
2023-04-25T22:26:09.963Z,4.88
2023-04-25T22:28:38.977Z,4.30
2023-04-25T22:31:07.674Z,3.20
2023-04-25T22:33:36.144Z,3.97
2023-04-25T22:36:04.754Z,5.13
2023-04-25T22:38:33.025Z,4.90
2023-04-25T22:41:01.457Z,5.13
2023-04-25T22:43:31.414Z,4.28
2023-04-25T22:45:59.936Z,4.43
2023-04-25T22:48:28.282Z,5.40
2023-04-25T22:51:03.784Z,5.05
2023-04-25T22:53:34.264Z,5.10
2023-04-25T22:56:03.036Z,4.82
2023-04-25T22:58:33.049Z,4.10
2023-04-25T23:01:01.954Z,5.10
2023-04-25T23:03:32.726Z,5.63
2023-04-25T23:06:01.223Z,4.38
2023-04-25T23:08:29.580Z,5.68
2023-04-25T23:10:58.376Z,7.45
2023-04-25T23:13:26.720Z,6.22
2023-04-25T23:15:56.340Z,5.78
2023-04-25T23:18:24.674Z,4.93
2023-04-25T23:20:53.563Z,5.00
2023-04-25T23:23:22.289Z,5.18
2023-04-25T23:25:50.518Z,5.22
2023-04-25T23:28:18.934Z,5.88
2023-04-25T23:30:47.231Z,6.75
2023-04-25T23:33:16.911Z,5.95
2023-04-25T23:35:45.197Z,5.97
2023-04-25T23:38:13.798Z,6.82
2023-04-25T23:40:42.123Z,6.60
2023-04-25T23:43:10.909Z,7.22
2023-04-25T23:45:40.140Z,8.02
2023-04-25T23:48:08.570Z,6.13
2023-04-25T23:50:38.238Z,8.48
2023-04-25T23:53:06.528Z,10.27
2023-04-25T23:55:35.270Z,10.02
2023-04-25T23:58:03.863Z,8.05
